sensor_id;sensor_type;location;lat;lon;timestamp;temperature;humidity
36416;DHT22;22447;44.530;18.620;2022-10-17T00:02:25;10.20;99.90
36416;DHT22;22447;44.530;18.620;2022-10-17T00:04:50;10.20;99.90
36416;DHT22;22447;44.530;18.620;2022-10-17T00:07:16;10.20;99.90
36416;DHT22;22447;44.530;18.620;2022-10-17T00:09:42;10.20;99.90
36416;DHT22;22447;44.530;18.620;2022-10-17T00:12:08;10.20;99.90
36416;DHT22;22447;44.530;18.620;2022-10-17T00:14:35;10.20;99.90
36416;DHT22;22447;44.530;18.620;2022-10-17T00:17:01;10.30;99.90
36416;DHT22;22447;44.530;18.620;2022-10-17T00:19:27;10.40;99.90
36416;DHT22;22447;44.530;18.620;2022-10-17T00:21:52;10.50;99.90
36416;DHT22;22447;44.530;18.620;2022-10-17T00:24:18;10.40;99.90
36416;DHT22;22447;44.530;18.620;2022-10-17T00:26:44;10.40;99.90
36416;DHT22;22447;44.530;18.620;2022-10-17T00:29:10;10.40;99.90
36416;DHT22;22447;44.530;18.620;2022-10-17T00:31:36;10.20;99.90
36416;DHT22;22447;44.530;18.620;2022-10-17T00:34:02;10.20;99.90
36416;DHT22;22447;44.530;18.620;2022-10-17T00:36:28;10.10;99.90
36416;DHT22;22447;44.530;18.620;2022-10-17T00:38:56;10.10;99.90
36416;DHT22;22447;44.530;18.620;2022-10-17T00:41:27;10.20;99.90
36416;DHT22;22447;44.530;18.620;2022-10-17T00:46:35;10.10;99.90
36416;DHT22;22447;44.530;18.620;2022-10-17T00:49:08;10.00;99.90
36416;DHT22;22447;44.530;18.620;2022-10-17T00:51:40;10.00;99.90
36416;DHT22;22447;44.530;18.620;2022-10-17T00:54:09;10.00;99.90
36416;DHT22;22447;44.530;18.620;2022-10-17T00:56:36;9.90;99.90
36416;DHT22;22447;44.530;18.620;2022-10-17T00:59:03;9.80;99.90
36416;DHT22;22447;44.530;18.620;2022-10-17T01:01:29;9.70;99.90
36416;DHT22;22447;44.530;18.620;2022-10-17T01:03:56;9.70;99.90
36416;DHT22;22447;44.530;18.620;2022-10-17T01:06:22;9.70;99.90
36416;DHT22;22447;44.530;18.620;2022-10-17T01:08:48;9.70;99.90
36416;DHT22;22447;44.530;18.620;2022-10-17T01:39:02;9.40;99.90
36416;DHT22;22447;44.530;18.620;2022-10-17T01:41:41;9.40;99.90
36416;DHT22;22447;44.530;18.620;2022-10-17T01:44:12;9.30;99.90
36416;DHT22;22447;44.530;18.620;2022-10-17T01:46:53;9.30;99.90
36416;DHT22;22447;44.530;18.620;2022-10-17T01:49:23;9.30;99.90
36416;DHT22;22447;44.530;18.620;2022-10-17T01:52:02;9.30;99.90
36416;DHT22;22447;44.530;18.620;2022-10-17T01:54:54;9.30;99.90
36416;DHT22;22447;44.530;18.620;2022-10-17T01:57:28;9.20;99.90
36416;DHT22;22447;44.530;18.620;2022-10-17T01:59:56;9.20;99.90
36416;DHT22;22447;44.530;18.620;2022-10-17T02:02:23;9.30;99.90
36416;DHT22;22447;44.530;18.620;2022-10-17T02:04:51;9.30;99.90
36416;DHT22;22447;44.530;18.620;2022-10-17T02:07:19;9.40;99.90
36416;DHT22;22447;44.530;18.620;2022-10-17T02:09:45;9.30;99.90
36416;DHT22;22447;44.530;18.620;2022-10-17T02:15:36;9.20;99.90
36416;DHT22;22447;44.530;18.620;2022-10-17T02:20:23;9.10;99.90
36416;DHT22;22447;44.530;18.620;2022-10-17T02:25:43;9.00;99.90
36416;DHT22;22447;44.530;18.620;2022-10-17T02:28:16;9.00;99.90
36416;DHT22;22447;44.530;18.620;2022-10-17T02:33:32;9.10;99.90
36416;DHT22;22447;44.530;18.620;2022-10-17T02:36:03;9.20;99.90
36416;DHT22;22447;44.530;18.620;2022-10-17T02:38:31;9.10;99.90
36416;DHT22;22447;44.530;18.620;2022-10-17T02:41:00;8.90;99.90
36416;DHT22;22447;44.530;18.620;2022-10-17T02:43:27;8.80;99.90
36416;DHT22;22447;44.530;18.620;2022-10-17T02:45:54;8.80;99.90
36416;DHT22;22447;44.530;18.620;2022-10-17T02:48:24;8.80;99.90
36416;DHT22;22447;44.530;18.620;2022-10-17T02:54:00;8.80;99.90
36416;DHT22;22447;44.530;18.620;2022-10-17T02:56:35;8.80;99.90
36416;DHT22;22447;44.530;18.620;2022-10-17T02:59:02;8.70;99.90
36416;DHT22;22447;44.530;18.620;2022-10-17T03:01:30;8.80;99.90
36416;DHT22;22447;44.530;18.620;2022-10-17T03:04:10;8.80;99.90
36416;DHT22;22447;44.530;18.620;2022-10-17T03:06:37;9.00;99.90
36416;DHT22;22447;44.530;18.620;2022-10-17T03:09:03;8.90;99.90
36416;DHT22;22447;44.530;18.620;2022-10-17T03:11:29;8.90;99.90
36416;DHT22;22447;44.530;18.620;2022-10-17T03:13:55;9.00;99.90
36416;DHT22;22447;44.530;18.620;2022-10-17T03:16:21;9.00;99.90
36416;DHT22;22447;44.530;18.620;2022-10-17T03:18:47;9.00;99.90
36416;DHT22;22447;44.530;18.620;2022-10-17T03:21:13;9.10;99.90
36416;DHT22;22447;44.530;18.620;2022-10-17T03:23:39;9.10;99.90
36416;DHT22;22447;44.530;18.620;2022-10-17T03:26:06;9.10;99.90
36416;DHT22;22447;44.530;18.620;2022-10-17T03:28:34;9.10;99.90
36416;DHT22;22447;44.530;18.620;2022-10-17T03:31:06;9.00;99.90
36416;DHT22;22447;44.530;18.620;2022-10-17T03:33:32;9.00;99.90
36416;DHT22;22447;44.530;18.620;2022-10-17T03:35:59;8.90;99.90
36416;DHT22;22447;44.530;18.620;2022-10-17T03:38:24;9.00;99.90
36416;DHT22;22447;44.530;18.620;2022-10-17T03:40:54;9.10;99.90
36416;DHT22;22447;44.530;18.620;2022-10-17T03:43:21;9.10;99.90
36416;DHT22;22447;44.530;18.620;2022-10-17T03:45:47;9.20;99.90
36416;DHT22;22447;44.530;18.620;2022-10-17T03:48:13;9.10;99.90
36416;DHT22;22447;44.530;18.620;2022-10-17T03:50:39;9.30;99.90
36416;DHT22;22447;44.530;18.620;2022-10-17T03:53:04;9.30;99.90
36416;DHT22;22447;44.530;18.620;2022-10-17T03:55:30;9.00;99.90
36416;DHT22;22447;44.530;18.620;2022-10-17T03:57:56;9.00;99.90
36416;DHT22;22447;44.530;18.620;2022-10-17T04:00:22;8.80;99.90
36416;DHT22;22447;44.530;18.620;2022-10-17T04:02:54;8.70;99.90
36416;DHT22;22447;44.530;18.620;2022-10-17T04:05:20;8.60;99.90
36416;DHT22;22447;44.530;18.620;2022-10-17T04:07:46;8.60;99.90
36416;DHT22;22447;44.530;18.620;2022-10-17T04:10:14;8.60;99.90
36416;DHT22;22447;44.530;18.620;2022-10-17T04:12:41;8.50;99.90
36416;DHT22;22447;44.530;18.620;2022-10-17T04:15:08;8.50;99.90
36416;DHT22;22447;44.530;18.620;2022-10-17T04:17:35;8.50;99.90
36416;DHT22;22447;44.530;18.620;2022-10-17T04:20:00;8.40;99.90
36416;DHT22;22447;44.530;18.620;2022-10-17T04:22:27;8.40;99.90
36416;DHT22;22447;44.530;18.620;2022-10-17T04:24:52;8.40;99.90
36416;DHT22;22447;44.530;18.620;2022-10-17T04:27:31;8.30;99.90
36416;DHT22;22447;44.530;18.620;2022-10-17T04:29:57;8.30;99.90
36416;DHT22;22447;44.530;18.620;2022-10-17T04:32:24;8.30;99.90
36416;DHT22;22447;44.530;18.620;2022-10-17T04:35:09;8.40;99.90
36416;DHT22;22447;44.530;18.620;2022-10-17T04:37:36;8.30;99.90
36416;DHT22;22447;44.530;18.620;2022-10-17T04:40:09;8.30;99.90
36416;DHT22;22447;44.530;18.620;2022-10-17T04:42:35;8.30;99.90
36416;DHT22;22447;44.530;18.620;2022-10-17T04:45:03;8.40;99.90
36416;DHT22;22447;44.530;18.620;2022-10-17T04:47:29;8.40;99.90
36416;DHT22;22447;44.530;18.620;2022-10-17T04:49:55;8.40;99.90
36416;DHT22;22447;44.530;18.620;2022-10-17T04:52:22;8.40;99.90
36416;DHT22;22447;44.530;18.620;2022-10-17T04:54:49;8.20;99.90
36416;DHT22;22447;44.530;18.620;2022-10-17T04:57:16;8.10;99.90
36416;DHT22;22447;44.530;18.620;2022-10-17T04:59:52;8.00;99.90
36416;DHT22;22447;44.530;18.620;2022-10-17T05:02:39;8.00;99.90
36416;DHT22;22447;44.530;18.620;2022-10-17T05:05:05;8.10;99.90
36416;DHT22;22447;44.530;18.620;2022-10-17T05:07:31;8.10;99.90
36416;DHT22;22447;44.530;18.620;2022-10-17T05:10:02;8.10;99.90
36416;DHT22;22447;44.530;18.620;2022-10-17T05:12:29;8.00;99.90
36416;DHT22;22447;44.530;18.620;2022-10-17T05:14:55;8.10;99.90
36416;DHT22;22447;44.530;18.620;2022-10-17T05:17:23;8.10;99.90
36416;DHT22;22447;44.530;18.620;2022-10-17T05:19:49;7.90;99.90
36416;DHT22;22447;44.530;18.620;2022-10-17T05:22:16;7.90;99.90
36416;DHT22;22447;44.530;18.620;2022-10-17T05:24:42;7.90;99.90
36416;DHT22;22447;44.530;18.620;2022-10-17T05:27:10;8.10;99.90
36416;DHT22;22447;44.530;18.620;2022-10-17T05:29:36;8.30;99.90
36416;DHT22;22447;44.530;18.620;2022-10-17T05:32:10;8.60;99.90
36416;DHT22;22447;44.530;18.620;2022-10-17T05:34:36;9.00;99.90
36416;DHT22;22447;44.530;18.620;2022-10-17T05:37:02;9.30;99.90
36416;DHT22;22447;44.530;18.620;2022-10-17T05:39:28;9.70;99.90
36416;DHT22;22447;44.530;18.620;2022-10-17T05:41:55;10.40;99.90
36416;DHT22;22447;44.530;18.620;2022-10-17T05:44:22;10.50;99.90
36416;DHT22;22447;44.530;18.620;2022-10-17T05:46:52;10.90;99.90
36416;DHT22;22447;44.530;18.620;2022-10-17T05:49:21;11.40;99.90
36416;DHT22;22447;44.530;18.620;2022-10-17T05:51:47;11.90;99.90
36416;DHT22;22447;44.530;18.620;2022-10-17T05:54:15;12.30;99.90
36416;DHT22;22447;44.530;18.620;2022-10-17T05:56:44;12.70;99.90
36416;DHT22;22447;44.530;18.620;2022-10-17T05:59:10;12.90;99.90
36416;DHT22;22447;44.530;18.620;2022-10-17T06:01:46;13.20;99.90
36416;DHT22;22447;44.530;18.620;2022-10-17T06:04:12;13.40;99.90
36416;DHT22;22447;44.530;18.620;2022-10-17T06:06:39;13.50;99.90
36416;DHT22;22447;44.530;18.620;2022-10-17T06:09:06;13.60;99.90
36416;DHT22;22447;44.530;18.620;2022-10-17T06:11:36;13.80;99.90
36416;DHT22;22447;44.530;18.620;2022-10-17T06:14:04;14.00;99.90
36416;DHT22;22447;44.530;18.620;2022-10-17T06:16:31;14.40;99.90
36416;DHT22;22447;44.530;18.620;2022-10-17T06:19:01;14.70;99.90
36416;DHT22;22447;44.530;18.620;2022-10-17T06:21:28;15.20;99.90
36416;DHT22;22447;44.530;18.620;2022-10-17T06:24:12;15.30;99.90
36416;DHT22;22447;44.530;18.620;2022-10-17T06:26:40;15.40;99.90
36416;DHT22;22447;44.530;18.620;2022-10-17T06:29:07;15.20;99.90
36416;DHT22;22447;44.530;18.620;2022-10-17T06:31:39;14.90;99.90
36416;DHT22;22447;44.530;18.620;2022-10-17T06:34:14;14.80;99.90
36416;DHT22;22447;44.530;18.620;2022-10-17T06:36:43;15.10;99.90
36416;DHT22;22447;44.530;18.620;2022-10-17T06:39:09;15.20;99.90
36416;DHT22;22447;44.530;18.620;2022-10-17T06:41:44;15.60;99.90
36416;DHT22;22447;44.530;18.620;2022-10-17T06:44:11;16.20;99.90
36416;DHT22;22447;44.530;18.620;2022-10-17T06:46:59;16.40;98.00
36416;DHT22;22447;44.530;18.620;2022-10-17T06:49:26;16.80;98.60
36416;DHT22;22447;44.530;18.620;2022-10-17T06:52:11;17.00;95.10
36416;DHT22;22447;44.530;18.620;2022-10-17T06:54:45;17.10;95.00
36416;DHT22;22447;44.530;18.620;2022-10-17T06:57:38;17.20;96.00
36416;DHT22;22447;44.530;18.620;2022-10-17T07:00:23;17.00;95.70
36416;DHT22;22447;44.530;18.620;2022-10-17T07:02:52;17.60;94.20
36416;DHT22;22447;44.530;18.620;2022-10-17T07:05:19;18.20;93.00
36416;DHT22;22447;44.530;18.620;2022-10-17T07:07:46;18.50;92.40
36416;DHT22;22447;44.530;18.620;2022-10-17T07:10:13;18.70;90.40
36416;DHT22;22447;44.530;18.620;2022-10-17T07:12:39;18.50;90.40
36416;DHT22;22447;44.530;18.620;2022-10-17T07:15:05;18.80;89.90
36416;DHT22;22447;44.530;18.620;2022-10-17T07:17:34;18.90;90.80
36416;DHT22;22447;44.530;18.620;2022-10-17T07:20:00;19.50;90.00
36416;DHT22;22447;44.530;18.620;2022-10-17T07:22:28;19.70;85.90
36416;DHT22;22447;44.530;18.620;2022-10-17T07:24:56;18.90;86.70
36416;DHT22;22447;44.530;18.620;2022-10-17T07:27:29;19.30;85.90
36416;DHT22;22447;44.530;18.620;2022-10-17T07:29:55;19.70;86.90
36416;DHT22;22447;44.530;18.620;2022-10-17T07:32:34;19.70;84.70
36416;DHT22;22447;44.530;18.620;2022-10-17T07:35:00;19.70;82.90
36416;DHT22;22447;44.530;18.620;2022-10-17T07:37:26;19.60;83.80
36416;DHT22;22447;44.530;18.620;2022-10-17T07:39:54;19.90;82.70
36416;DHT22;22447;44.530;18.620;2022-10-17T07:42:21;19.50;85.20
36416;DHT22;22447;44.530;18.620;2022-10-17T07:44:48;20.00;83.90
36416;DHT22;22447;44.530;18.620;2022-10-17T07:47:15;19.90;83.80
36416;DHT22;22447;44.530;18.620;2022-10-17T07:49:41;20.20;84.20
36416;DHT22;22447;44.530;18.620;2022-10-17T07:52:12;20.50;80.00
36416;DHT22;22447;44.530;18.620;2022-10-17T07:54:39;20.40;80.40
36416;DHT22;22447;44.530;18.620;2022-10-17T07:57:05;20.70;78.00
36416;DHT22;22447;44.530;18.620;2022-10-17T07:59:32;20.50;78.40
36416;DHT22;22447;44.530;18.620;2022-10-17T08:01:59;20.50;79.00
36416;DHT22;22447;44.530;18.620;2022-10-17T08:04:25;20.10;80.80
36416;DHT22;22447;44.530;18.620;2022-10-17T08:06:52;20.70;80.10
36416;DHT22;22447;44.530;18.620;2022-10-17T08:09:18;21.00;80.30
36416;DHT22;22447;44.530;18.620;2022-10-17T08:11:44;21.50;77.70
36416;DHT22;22447;44.530;18.620;2022-10-17T08:14:12;21.40;75.40
36416;DHT22;22447;44.530;18.620;2022-10-17T08:16:39;21.50;71.50
36416;DHT22;22447;44.530;18.620;2022-10-17T08:19:08;21.60;73.50
36416;DHT22;22447;44.530;18.620;2022-10-17T08:21:36;22.10;72.90
36416;DHT22;22447;44.530;18.620;2022-10-17T08:24:03;22.30;69.70
36416;DHT22;22447;44.530;18.620;2022-10-17T08:26:29;23.00;69.70
36416;DHT22;22447;44.530;18.620;2022-10-17T08:28:57;23.50;65.10
36416;DHT22;22447;44.530;18.620;2022-10-17T08:31:23;23.50;62.30
36416;DHT22;22447;44.530;18.620;2022-10-17T08:33:50;23.60;63.20
36416;DHT22;22447;44.530;18.620;2022-10-17T08:36:18;24.00;62.00
36416;DHT22;22447;44.530;18.620;2022-10-17T08:38:44;23.60;61.70
36416;DHT22;22447;44.530;18.620;2022-10-17T08:46:36;23.80;59.70
36416;DHT22;22447;44.530;18.620;2022-10-17T08:49:09;23.80;60.10
36416;DHT22;22447;44.530;18.620;2022-10-17T08:51:52;23.90;60.10
36416;DHT22;22447;44.530;18.620;2022-10-17T08:54:25;23.90;59.50
36416;DHT22;22447;44.530;18.620;2022-10-17T08:56:55;24.30;59.80
36416;DHT22;22447;44.530;18.620;2022-10-17T08:59:28;24.10;58.60
36416;DHT22;22447;44.530;18.620;2022-10-17T09:13:12;25.20;58.20
36416;DHT22;22447;44.530;18.620;2022-10-17T09:16:02;25.40;56.70
36416;DHT22;22447;44.530;18.620;2022-10-17T09:19:35;25.60;57.10
36416;DHT22;22447;44.530;18.620;2022-10-17T09:21:50;25.30;56.30
36416;DHT22;22447;44.530;18.620;2022-10-17T09:27:10;26.30;55.40
36416;DHT22;22447;44.530;18.620;2022-10-17T09:29:39;26.40;53.50
36416;DHT22;22447;44.530;18.620;2022-10-17T09:32:17;26.70;54.00
36416;DHT22;22447;44.530;18.620;2022-10-17T09:34:44;26.90;53.60
36416;DHT22;22447;44.530;18.620;2022-10-17T09:37:15;26.10;53.70
36416;DHT22;22447;44.530;18.620;2022-10-17T09:39:42;26.60;54.20
36416;DHT22;22447;44.530;18.620;2022-10-17T09:42:14;27.00;54.90
36416;DHT22;22447;44.530;18.620;2022-10-17T09:48:06;27.30;52.60
36416;DHT22;22447;44.530;18.620;2022-10-17T09:50:35;26.60;51.80
36416;DHT22;22447;44.530;18.620;2022-10-17T09:53:23;27.30;51.40
36416;DHT22;22447;44.530;18.620;2022-10-17T09:55:52;27.60;50.00
36416;DHT22;22447;44.530;18.620;2022-10-17T09:58:21;27.50;50.00
36416;DHT22;22447;44.530;18.620;2022-10-17T10:00:47;27.70;49.80
36416;DHT22;22447;44.530;18.620;2022-10-17T10:03:22;27.50;49.90
36416;DHT22;22447;44.530;18.620;2022-10-17T10:08:50;28.10;48.60
36416;DHT22;22447;44.530;18.620;2022-10-17T10:11:18;28.40;48.40
36416;DHT22;22447;44.530;18.620;2022-10-17T10:13:50;28.20;48.40
36416;DHT22;22447;44.530;18.620;2022-10-17T10:16:29;28.40;48.50
36416;DHT22;22447;44.530;18.620;2022-10-17T10:18:56;28.60;47.80
36416;DHT22;22447;44.530;18.620;2022-10-17T10:21:25;28.80;48.10
36416;DHT22;22447;44.530;18.620;2022-10-17T10:26:48;29.00;46.90
36416;DHT22;22447;44.530;18.620;2022-10-17T10:31:47;29.10;45.90
36416;DHT22;22447;44.530;18.620;2022-10-17T10:34:28;29.10;46.20
36416;DHT22;22447;44.530;18.620;2022-10-17T10:37:05;28.90;45.70
36416;DHT22;22447;44.530;18.620;2022-10-17T10:39:49;29.40;45.60
36416;DHT22;22447;44.530;18.620;2022-10-17T10:42:37;29.30;45.00
36416;DHT22;22447;44.530;18.620;2022-10-17T10:48:25;29.60;44.90
36416;DHT22;22447;44.530;18.620;2022-10-17T10:50:56;28.70;43.90
36416;DHT22;22447;44.530;18.620;2022-10-17T10:53:35;29.10;43.80
36416;DHT22;22447;44.530;18.620;2022-10-17T11:01:52;30.00;44.40
36416;DHT22;22447;44.530;18.620;2022-10-17T11:06:58;30.60;44.20
36416;DHT22;22447;44.530;18.620;2022-10-17T11:12:11;30.80;42.20
36416;DHT22;22447;44.530;18.620;2022-10-17T11:14:48;30.60;41.60
36416;DHT22;22447;44.530;18.620;2022-10-17T11:20:21;30.90;41.80
36416;DHT22;22447;44.530;18.620;2022-10-17T11:22:47;30.50;40.40
36416;DHT22;22447;44.530;18.620;2022-10-17T11:25:36;30.30;41.50
36416;DHT22;22447;44.530;18.620;2022-10-17T11:28:08;28.80;42.70
36416;DHT22;22447;44.530;18.620;2022-10-17T11:30:59;29.00;45.20
36416;DHT22;22447;44.530;18.620;2022-10-17T11:33:31;30.30;43.10
36416;DHT22;22447;44.530;18.620;2022-10-17T11:36:03;30.40;41.40
36416;DHT22;22447;44.530;18.620;2022-10-17T11:41:03;31.00;41.70
36416;DHT22;22447;44.530;18.620;2022-10-17T11:43:44;31.10;41.50
36416;DHT22;22447;44.530;18.620;2022-10-17T11:46:31;31.00;40.10
36416;DHT22;22447;44.530;18.620;2022-10-17T11:49:01;30.60;40.40
36416;DHT22;22447;44.530;18.620;2022-10-17T11:51:34;30.80;38.60
36416;DHT22;22447;44.530;18.620;2022-10-17T11:54:12;30.50;40.00
36416;DHT22;22447;44.530;18.620;2022-10-17T11:56:53;31.10;39.70
36416;DHT22;22447;44.530;18.620;2022-10-17T11:59:47;31.70;40.30
36416;DHT22;22447;44.530;18.620;2022-10-17T12:02:44;29.40;40.30
36416;DHT22;22447;44.530;18.620;2022-10-17T12:05:53;30.20;41.40
36416;DHT22;22447;44.530;18.620;2022-10-17T12:11:54;30.10;40.30
36416;DHT22;22447;44.530;18.620;2022-10-17T12:17:41;30.40;41.50
36416;DHT22;22447;44.530;18.620;2022-10-17T12:22:53;29.70;39.70
36416;DHT22;22447;44.530;18.620;2022-10-17T12:25:26;29.90;40.50
36416;DHT22;22447;44.530;18.620;2022-10-17T12:28:25;30.00;40.60
36416;DHT22;22447;44.530;18.620;2022-10-17T12:31:01;30.40;41.50
36416;DHT22;22447;44.530;18.620;2022-10-17T12:52:24;30.70;42.40
36416;DHT22;22447;44.530;18.620;2022-10-17T12:57:48;30.50;42.40
36416;DHT22;22447;44.530;18.620;2022-10-17T13:00:32;30.50;43.40
36416;DHT22;22447;44.530;18.620;2022-10-17T13:05:38;30.30;41.70
36416;DHT22;22447;44.530;18.620;2022-10-17T13:08:07;30.40;42.50
36416;DHT22;22447;44.530;18.620;2022-10-17T13:10:36;30.30;42.80
36416;DHT22;22447;44.530;18.620;2022-10-17T13:13:16;30.30;42.90
36416;DHT22;22447;44.530;18.620;2022-10-17T13:15:51;30.10;43.60
36416;DHT22;22447;44.530;18.620;2022-10-17T13:18:23;30.10;43.60
36416;DHT22;22447;44.530;18.620;2022-10-17T13:20:59;29.30;43.70
36416;DHT22;22447;44.530;18.620;2022-10-17T13:23:28;29.20;44.40
36416;DHT22;22447;44.530;18.620;2022-10-17T13:26:17;28.90;44.50
36416;DHT22;22447;44.530;18.620;2022-10-17T13:29:31;29.30;45.20
36416;DHT22;22447;44.530;18.620;2022-10-17T13:31:34;29.20;43.90
36416;DHT22;22447;44.530;18.620;2022-10-17T13:34:04;29.20;43.30
36416;DHT22;22447;44.530;18.620;2022-10-17T13:36:30;29.20;44.10
36416;DHT22;22447;44.530;18.620;2022-10-17T13:39:06;29.10;44.60
36416;DHT22;22447;44.530;18.620;2022-10-17T13:41:33;29.00;44.20
36416;DHT22;22447;44.530;18.620;2022-10-17T13:44:01;28.40;45.00
36416;DHT22;22447;44.530;18.620;2022-10-17T13:46:31;28.60;44.50
36416;DHT22;22447;44.530;18.620;2022-10-17T13:48:58;28.30;44.20
36416;DHT22;22447;44.530;18.620;2022-10-17T13:51:33;28.30;45.30
36416;DHT22;22447;44.530;18.620;2022-10-17T13:53:59;28.10;45.10
36416;DHT22;22447;44.530;18.620;2022-10-17T13:56:26;28.00;45.10
36416;DHT22;22447;44.530;18.620;2022-10-17T13:58:53;27.70;46.60
36416;DHT22;22447;44.530;18.620;2022-10-17T14:01:23;27.70;46.10
36416;DHT22;22447;44.530;18.620;2022-10-17T14:03:49;27.30;45.50
36416;DHT22;22447;44.530;18.620;2022-10-17T14:06:26;27.00;46.30
36416;DHT22;22447;44.530;18.620;2022-10-17T14:08:59;27.10;47.30
36416;DHT22;22447;44.530;18.620;2022-10-17T14:11:32;27.10;47.10
36416;DHT22;22447;44.530;18.620;2022-10-17T14:14:00;26.70;49.20
36416;DHT22;22447;44.530;18.620;2022-10-17T14:16:37;26.50;48.50
36416;DHT22;22447;44.530;18.620;2022-10-17T14:19:04;26.60;48.20
36416;DHT22;22447;44.530;18.620;2022-10-17T14:21:31;26.50;47.90
36416;DHT22;22447;44.530;18.620;2022-10-17T14:24:26;26.50;48.00
36416;DHT22;22447;44.530;18.620;2022-10-17T14:26:54;26.40;48.00
36416;DHT22;22447;44.530;18.620;2022-10-17T14:29:28;26.10;47.90
36416;DHT22;22447;44.530;18.620;2022-10-17T14:32:06;25.80;47.90
36416;DHT22;22447;44.530;18.620;2022-10-17T14:34:35;25.50;48.30
36416;DHT22;22447;44.530;18.620;2022-10-17T14:37:11;25.40;47.50
36416;DHT22;22447;44.530;18.620;2022-10-17T14:39:48;25.10;47.50
36416;DHT22;22447;44.530;18.620;2022-10-17T14:42:19;24.80;48.00
36416;DHT22;22447;44.530;18.620;2022-10-17T14:44:47;24.80;49.20
36416;DHT22;22447;44.530;18.620;2022-10-17T14:47:19;24.60;49.00
36416;DHT22;22447;44.530;18.620;2022-10-17T14:49:49;24.40;50.20
36416;DHT22;22447;44.530;18.620;2022-10-17T14:54:48;23.90;51.10
36416;DHT22;22447;44.530;18.620;2022-10-17T14:57:23;23.80;50.60
36416;DHT22;22447;44.530;18.620;2022-10-17T14:59:50;23.70;51.90
36416;DHT22;22447;44.530;18.620;2022-10-17T15:02:16;23.50;52.80
36416;DHT22;22447;44.530;18.620;2022-10-17T15:04:42;23.40;53.50
36416;DHT22;22447;44.530;18.620;2022-10-17T15:07:16;23.20;53.10
36416;DHT22;22447;44.530;18.620;2022-10-17T15:09:43;22.90;55.00
36416;DHT22;22447;44.530;18.620;2022-10-17T15:12:16;22.60;56.20
36416;DHT22;22447;44.530;18.620;2022-10-17T15:14:42;22.30;57.60
36416;DHT22;22447;44.530;18.620;2022-10-17T15:17:29;22.00;58.50
36416;DHT22;22447;44.530;18.620;2022-10-17T15:19:56;21.70;60.00
36416;DHT22;22447;44.530;18.620;2022-10-17T15:22:22;21.60;60.10
36416;DHT22;22447;44.530;18.620;2022-10-17T15:24:49;21.40;61.70
36416;DHT22;22447;44.530;18.620;2022-10-17T15:27:21;21.20;62.50
36416;DHT22;22447;44.530;18.620;2022-10-17T15:29:48;21.10;64.10
36416;DHT22;22447;44.530;18.620;2022-10-17T15:32:14;21.00;65.20
36416;DHT22;22447;44.530;18.620;2022-10-17T15:34:40;20.70;65.10
36416;DHT22;22447;44.530;18.620;2022-10-17T15:37:21;20.60;66.50
36416;DHT22;22447;44.530;18.620;2022-10-17T15:39:48;20.30;67.50
36416;DHT22;22447;44.530;18.620;2022-10-17T15:42:18;20.00;69.30
36416;DHT22;22447;44.530;18.620;2022-10-17T15:44:44;19.60;69.80
36416;DHT22;22447;44.530;18.620;2022-10-17T15:47:25;19.50;72.50
36416;DHT22;22447;44.530;18.620;2022-10-17T15:49:53;19.30;73.10
36416;DHT22;22447;44.530;18.620;2022-10-17T15:52:19;18.90;76.70
36416;DHT22;22447;44.530;18.620;2022-10-17T15:54:45;18.70;81.30
36416;DHT22;22447;44.530;18.620;2022-10-17T15:57:18;18.50;86.70
36416;DHT22;22447;44.530;18.620;2022-10-17T15:59:45;18.40;89.70
36416;DHT22;22447;44.530;18.620;2022-10-17T16:02:17;18.00;92.40
36416;DHT22;22447;44.530;18.620;2022-10-17T16:04:44;17.90;94.00
36416;DHT22;22447;44.530;18.620;2022-10-17T16:07:11;17.70;95.40
36416;DHT22;22447;44.530;18.620;2022-10-17T16:09:37;17.60;96.80
36416;DHT22;22447;44.530;18.620;2022-10-17T16:12:05;17.30;98.00
36416;DHT22;22447;44.530;18.620;2022-10-17T16:14:32;17.10;98.50
36416;DHT22;22447;44.530;18.620;2022-10-17T16:16:58;17.10;99.40
36416;DHT22;22447;44.530;18.620;2022-10-17T16:19:25;17.10;99.90
36416;DHT22;22447;44.530;18.620;2022-10-17T16:21:57;17.20;99.90
36416;DHT22;22447;44.530;18.620;2022-10-17T16:24:25;17.10;99.90
36416;DHT22;22447;44.530;18.620;2022-10-17T16:26:51;16.90;99.90
36416;DHT22;22447;44.530;18.620;2022-10-17T16:29:17;16.70;99.90
36416;DHT22;22447;44.530;18.620;2022-10-17T16:31:44;16.60;99.90
36416;DHT22;22447;44.530;18.620;2022-10-17T16:34:12;16.40;99.90
36416;DHT22;22447;44.530;18.620;2022-10-17T16:36:39;16.30;99.90
36416;DHT22;22447;44.530;18.620;2022-10-17T16:39:05;16.30;99.90
36416;DHT22;22447;44.530;18.620;2022-10-17T16:41:34;16.20;99.90
36416;DHT22;22447;44.530;18.620;2022-10-17T16:44:02;16.10;99.90
36416;DHT22;22447;44.530;18.620;2022-10-17T16:46:29;16.00;99.90
36416;DHT22;22447;44.530;18.620;2022-10-17T16:48:56;15.90;99.90
36416;DHT22;22447;44.530;18.620;2022-10-17T16:51:23;15.80;99.90
36416;DHT22;22447;44.530;18.620;2022-10-17T16:53:50;15.80;99.90
36416;DHT22;22447;44.530;18.620;2022-10-17T16:56:19;15.70;99.90
36416;DHT22;22447;44.530;18.620;2022-10-17T16:58:46;15.50;99.90
36416;DHT22;22447;44.530;18.620;2022-10-17T17:01:15;15.30;99.90
36416;DHT22;22447;44.530;18.620;2022-10-17T17:03:43;15.20;99.90
36416;DHT22;22447;44.530;18.620;2022-10-17T17:06:14;15.10;99.90
36416;DHT22;22447;44.530;18.620;2022-10-17T17:08:41;15.00;99.90
36416;DHT22;22447;44.530;18.620;2022-10-17T17:11:09;14.90;99.90
36416;DHT22;22447;44.530;18.620;2022-10-17T17:13:35;14.90;99.90
36416;DHT22;22447;44.530;18.620;2022-10-17T17:16:06;14.80;99.90
36416;DHT22;22447;44.530;18.620;2022-10-17T17:18:33;14.70;99.90
36416;DHT22;22447;44.530;18.620;2022-10-17T17:21:00;14.60;99.90
36416;DHT22;22447;44.530;18.620;2022-10-17T17:23:27;14.60;99.90
36416;DHT22;22447;44.530;18.620;2022-10-17T17:26:05;14.50;99.90
36416;DHT22;22447;44.530;18.620;2022-10-17T17:28:32;14.50;99.90
36416;DHT22;22447;44.530;18.620;2022-10-17T17:30:58;14.40;99.90
36416;DHT22;22447;44.530;18.620;2022-10-17T17:33:25;14.40;99.90
36416;DHT22;22447;44.530;18.620;2022-10-17T17:35:57;14.40;99.90
36416;DHT22;22447;44.530;18.620;2022-10-17T17:38:25;14.30;99.90
36416;DHT22;22447;44.530;18.620;2022-10-17T17:40:53;14.20;99.90
36416;DHT22;22447;44.530;18.620;2022-10-17T17:43:19;14.20;99.90
36416;DHT22;22447;44.530;18.620;2022-10-17T17:45:45;14.10;99.90
36416;DHT22;22447;44.530;18.620;2022-10-17T17:48:12;13.90;99.90
36416;DHT22;22447;44.530;18.620;2022-10-17T17:50:39;13.70;99.90
36416;DHT22;22447;44.530;18.620;2022-10-17T17:53:06;13.70;99.90